sensor_id;sensor_type;location;lat;lon;timestamp;pressure;altitude;pressure_sealevel;temperature;humidity
5755;BME280;2902;42.130;24.732;2023-02-28T00:01:19;99996.13;;;11.77;76.55
5755;BME280;2902;42.130;24.732;2023-02-28T00:03:45;100002.72;;;11.81;76.72
5755;BME280;2902;42.130;24.732;2023-02-28T00:06:12;100004.53;;;11.81;76.46
5755;BME280;2902;42.130;24.732;2023-02-28T00:08:40;100014.94;;;11.76;76.69
5755;BME280;2902;42.130;24.732;2023-02-28T00:11:08;100014.06;;;11.54;77.29
5755;BME280;2902;42.130;24.732;2023-02-28T00:13:37;100010.69;;;11.46;77.60
5755;BME280;2902;42.130;24.732;2023-02-28T00:16:07;100018.38;;;11.55;77.54
5755;BME280;2902;42.130;24.732;2023-02-28T00:18:34;100012.34;;;11.61;77.33
5755;BME280;2902;42.130;24.732;2023-02-28T00:21:01;100010.75;;;11.67;77.14
5755;BME280;2902;42.130;24.732;2023-02-28T00:23:28;100010.59;;;11.75;76.81
5755;BME280;2902;42.130;24.732;2023-02-28T00:25:55;100019.28;;;11.83;76.46
5755;BME280;2902;42.130;24.732;2023-02-28T00:28:22;100018.47;;;11.83;76.18
5755;BME280;2902;42.130;24.732;2023-02-28T00:30:48;100018.09;;;11.86;76.33
5755;BME280;2902;42.130;24.732;2023-02-28T00:33:17;100014.22;;;11.88;76.38
5755;BME280;2902;42.130;24.732;2023-02-28T00:35:43;100006.50;;;11.93;76.00
5755;BME280;2902;42.130;24.732;2023-02-28T00:38:11;100003.25;;;11.98;75.49
5755;BME280;2902;42.130;24.732;2023-02-28T00:40:38;100003.66;;;12.01;75.43
5755;BME280;2902;42.130;24.732;2023-02-28T00:43:05;100001.66;;;12.03;75.57
5755;BME280;2902;42.130;24.732;2023-02-28T00:45:31;100010.25;;;12.05;75.19
5755;BME280;2902;42.130;24.732;2023-02-28T00:47:58;100012.31;;;12.03;75.42
5755;BME280;2902;42.130;24.732;2023-02-28T00:50:26;100008.38;;;11.99;75.67
5755;BME280;2902;42.130;24.732;2023-02-28T00:52:53;100009.00;;;12.01;75.23
5755;BME280;2902;42.130;24.732;2023-02-28T00:55:20;99994.69;;;12.02;75.51
5755;BME280;2902;42.130;24.732;2023-02-28T00:57:46;100006.75;;;11.98;75.78
5755;BME280;2902;42.130;24.732;2023-02-28T01:00:14;100013.53;;;12.01;75.46
5755;BME280;2902;42.130;24.732;2023-02-28T01:02:41;100016.00;;;12.02;75.46
5755;BME280;2902;42.130;24.732;2023-02-28T01:05:08;100016.00;;;12.02;75.25
5755;BME280;2902;42.130;24.732;2023-02-28T01:07:36;100026.66;;;12.02;75.22
5755;BME280;2902;42.130;24.732;2023-02-28T01:10:04;100020.47;;;12.02;75.14
5755;BME280;2902;42.130;24.732;2023-02-28T01:12:31;100017.19;;;12.00;75.03
5755;BME280;2902;42.130;24.732;2023-02-28T01:14:57;100023.53;;;11.99;75.34
5755;BME280;2902;42.130;24.732;2023-02-28T01:17:24;100037.66;;;11.99;75.84
5755;BME280;2902;42.130;24.732;2023-02-28T01:19:53;100034.34;;;11.97;75.77
5755;BME280;2902;42.130;24.732;2023-02-28T01:22:20;100049.59;;;12.03;75.99
5755;BME280;2902;42.130;24.732;2023-02-28T01:24:48;100050.84;;;12.07;75.82
5755;BME280;2902;42.130;24.732;2023-02-28T01:27:15;100041.47;;;12.11;75.58
5755;BME280;2902;42.130;24.732;2023-02-28T01:29:42;100032.06;;;12.15;75.15
5755;BME280;2902;42.130;24.732;2023-02-28T01:32:08;100040.69;;;12.17;74.77
5755;BME280;2902;42.130;24.732;2023-02-28T01:34:35;100039.63;;;12.12;74.30
5755;BME280;2902;42.130;24.732;2023-02-28T01:37:02;100045.94;;;12.11;75.25
5755;BME280;2902;42.130;24.732;2023-02-28T01:39:28;100057.81;;;12.08;74.91
5755;BME280;2902;42.130;24.732;2023-02-28T01:41:57;100053.13;;;12.10;74.92
5755;BME280;2902;42.130;24.732;2023-02-28T01:47:25;100069.31;;;12.09;74.68
5755;BME280;2902;42.130;24.732;2023-02-28T01:49:53;100073.78;;;12.08;74.74
5755;BME280;2902;42.130;24.732;2023-02-28T01:52:20;100083.00;;;12.06;75.04
5755;BME280;2902;42.130;24.732;2023-02-28T01:54:52;100081.91;;;12.00;75.14
5755;BME280;2902;42.130;24.732;2023-02-28T01:57:24;100087.88;;;12.02;75.12
5755;BME280;2902;42.130;24.732;2023-02-28T01:59:54;100091.69;;;11.93;74.47
5755;BME280;2902;42.130;24.732;2023-02-28T02:02:24;100097.75;;;11.87;74.24
5755;BME280;2902;42.130;24.732;2023-02-28T02:04:55;100111.84;;;11.81;74.01
5755;BME280;2902;42.130;24.732;2023-02-28T02:07:23;100112.03;;;11.80;73.87
5755;BME280;2902;42.130;24.732;2023-02-28T02:10:00;100115.41;;;11.74;74.15
5755;BME280;2902;42.130;24.732;2023-02-28T02:15:23;100105.28;;;11.63;74.75
5755;BME280;2902;42.130;24.732;2023-02-28T02:17:52;100115.16;;;11.69;74.72
5755;BME280;2902;42.130;24.732;2023-02-28T02:20:50;100112.50;;;11.69;74.64
5755;BME280;2902;42.130;24.732;2023-02-28T02:23:34;100109.31;;;11.59;74.93
5755;BME280;2902;42.130;24.732;2023-02-28T02:32:35;100111.19;;;11.29;76.21
5755;BME280;2902;42.130;24.732;2023-02-28T02:35:13;100118.50;;;11.27;76.58
5755;BME280;2902;42.130;24.732;2023-02-28T02:37:47;100125.84;;;11.25;76.66
5755;BME280;2902;42.130;24.732;2023-02-28T02:40:17;100122.44;;;11.31;76.63
5755;BME280;2902;42.130;24.732;2023-02-28T02:42:51;100124.75;;;11.34;76.72
5755;BME280;2902;42.130;24.732;2023-02-28T02:45:24;100120.88;;;11.37;76.76
5755;BME280;2902;42.130;24.732;2023-02-28T02:47:53;100127.41;;;11.34;76.97
5755;BME280;2902;42.130;24.732;2023-02-28T02:50:24;100125.00;;;11.39;76.87
5755;BME280;2902;42.130;24.732;2023-02-28T02:52:56;100130.97;;;11.41;76.79
5755;BME280;2902;42.130;24.732;2023-02-28T02:55:25;100134.38;;;11.35;77.63
5755;BME280;2902;42.130;24.732;2023-02-28T02:57:54;100134.38;;;11.35;78.37
5755;BME280;2902;42.130;24.732;2023-02-28T03:00:25;100141.28;;;11.30;79.60
5755;BME280;2902;42.130;24.732;2023-02-28T03:02:54;100137.22;;;11.19;80.83
5755;BME280;2902;42.130;24.732;2023-02-28T03:05:25;100151.34;;;10.90;83.18
5755;BME280;2902;42.130;24.732;2023-02-28T03:07:52;100145.66;;;10.93;83.29
5755;BME280;2902;42.130;24.732;2023-02-28T03:10:29;100163.09;;;10.96;84.29
5755;BME280;2902;42.130;24.732;2023-02-28T03:15:58;100171.06;;;10.96;85.74
5755;BME280;2902;42.130;24.732;2023-02-28T03:18:34;100167.38;;;10.97;85.66
5755;BME280;2902;42.130;24.732;2023-02-28T03:21:09;100171.88;;;10.96;86.30
5755;BME280;2902;42.130;24.732;2023-02-28T03:23:45;100176.38;;;10.96;86.07
5755;BME280;2902;42.130;24.732;2023-02-28T03:26:19;100174.44;;;10.90;87.04
5755;BME280;2902;42.130;24.732;2023-02-28T03:28:57;100165.94;;;10.57;87.31
5755;BME280;2902;42.130;24.732;2023-02-28T03:31:30;100182.66;;;10.66;88.49
5755;BME280;2902;42.130;24.732;2023-02-28T03:34:01;100175.72;;;10.57;88.96
5755;BME280;2902;42.130;24.732;2023-02-28T03:36:34;100177.47;;;10.50;89.59
5755;BME280;2902;42.130;24.732;2023-02-28T03:39:08;100174.63;;;10.51;89.88
5755;BME280;2902;42.130;24.732;2023-02-28T03:41:38;100175.00;;;10.48;90.19
5755;BME280;2902;42.130;24.732;2023-02-28T03:44:12;100180.66;;;10.45;90.26
5755;BME280;2902;42.130;24.732;2023-02-28T03:46:46;100177.00;;;10.46;90.88
5755;BME280;2902;42.130;24.732;2023-02-28T03:49:17;100179.47;;;10.48;90.50
5755;BME280;2902;42.130;24.732;2023-02-28T03:51:49;100184.78;;;10.48;91.09
5755;BME280;2902;42.130;24.732;2023-02-28T03:54:19;100190.16;;;10.40;91.41
5755;BME280;2902;42.130;24.732;2023-02-28T03:56:53;100186.75;;;10.31;91.59
5755;BME280;2902;42.130;24.732;2023-02-28T03:59:26;100192.47;;;10.43;91.94
5755;BME280;2902;42.130;24.732;2023-02-28T04:01:54;100199.31;;;10.37;92.07
5755;BME280;2902;42.130;24.732;2023-02-28T04:04:23;100210.81;;;10.30;92.44
5755;BME280;2902;42.130;24.732;2023-02-28T04:06:52;100207.63;;;10.34;92.30
5755;BME280;2902;42.130;24.732;2023-02-28T04:09:26;100211.41;;;10.40;92.38
5755;BME280;2902;42.130;24.732;2023-02-28T04:11:53;100223.81;;;10.25;92.40
5755;BME280;2902;42.130;24.732;2023-02-28T04:14:21;100210.81;;;10.07;93.06
5755;BME280;2902;42.130;24.732;2023-02-28T04:16:48;100227.66;;;10.14;93.72
5755;BME280;2902;42.130;24.732;2023-02-28T04:19:16;100228.50;;;10.15;92.57
5755;BME280;2902;42.130;24.732;2023-02-28T04:21:45;100233.53;;;10.10;92.54
5755;BME280;2902;42.130;24.732;2023-02-28T04:24:14;100235.88;;;10.05;93.32
5755;BME280;2902;42.130;24.732;2023-02-28T04:26:43;100230.88;;;10.10;92.28
5755;BME280;2902;42.130;24.732;2023-02-28T04:29:11;100227.53;;;10.08;93.07
5755;BME280;2902;42.130;24.732;2023-02-28T04:31:38;100239.47;;;10.12;92.67
5755;BME280;2902;42.130;24.732;2023-02-28T04:34:05;100223.53;;;10.12;92.00
5755;BME280;2902;42.130;24.732;2023-02-28T04:36:32;100227.88;;;10.13;92.40
5755;BME280;2902;42.130;24.732;2023-02-28T04:38:59;100234.16;;;10.12;92.71
5755;BME280;2902;42.130;24.732;2023-02-28T04:41:27;100219.22;;;10.11;92.08
5755;BME280;2902;42.130;24.732;2023-02-28T04:43:54;100222.22;;;10.08;92.24
5755;BME280;2902;42.130;24.732;2023-02-28T04:46:22;100227.56;;;10.00;92.73
5755;BME280;2902;42.130;24.732;2023-02-28T04:48:49;100235.19;;;10.03;92.92
5755;BME280;2902;42.130;24.732;2023-02-28T04:51:17;100238.16;;;10.00;92.83
5755;BME280;2902;42.130;24.732;2023-02-28T04:53:45;100222.59;;;10.05;92.83
5755;BME280;2902;42.130;24.732;2023-02-28T04:56:13;100229.22;;;10.09;92.21
5755;BME280;2902;42.130;24.732;2023-02-28T04:58:41;100223.91;;;10.09;92.06
5755;BME280;2902;42.130;24.732;2023-02-28T05:01:17;100243.47;;;10.08;91.78
5755;BME280;2902;42.130;24.732;2023-02-28T05:03:44;100258.13;;;9.88;92.66
5755;BME280;2902;42.130;24.732;2023-02-28T05:06:12;100252.81;;;9.88;92.82
5755;BME280;2902;42.130;24.732;2023-02-28T05:08:39;100256.75;;;10.00;92.48
5755;BME280;2902;42.130;24.732;2023-02-28T05:11:08;100257.13;;;9.97;92.34
5755;BME280;2902;42.130;24.732;2023-02-28T05:13:38;100255.44;;;9.96;92.59
5755;BME280;2902;42.130;24.732;2023-02-28T05:16:07;100264.53;;;10.01;92.26
5755;BME280;2902;42.130;24.732;2023-02-28T05:18:34;100260.03;;;10.18;91.48
5755;BME280;2902;42.130;24.732;2023-02-28T05:21:00;100263.34;;;10.12;91.43
5755;BME280;2902;42.130;24.732;2023-02-28T05:23:27;100271.38;;;9.96;91.94
5755;BME280;2902;42.130;24.732;2023-02-28T05:25:54;100265.28;;;9.87;92.26
5755;BME280;2902;42.130;24.732;2023-02-28T05:28:21;100271.38;;;9.96;91.60
5755;BME280;2902;42.130;24.732;2023-02-28T05:30:48;100288.25;;;10.03;91.71
5755;BME280;2902;42.130;24.732;2023-02-28T05:33:16;100294.06;;;10.06;91.67
5755;BME280;2902;42.130;24.732;2023-02-28T05:35:43;100285.94;;;10.08;91.31
5755;BME280;2902;42.130;24.732;2023-02-28T05:38:09;100288.09;;;10.12;90.91
5755;BME280;2902;42.130;24.732;2023-02-28T05:40:38;100294.69;;;10.16;90.18
5755;BME280;2902;42.130;24.732;2023-02-28T05:43:05;100289.44;;;10.08;90.36
5755;BME280;2902;42.130;24.732;2023-02-28T05:45:32;100300.19;;;10.15;89.77
5755;BME280;2902;42.130;24.732;2023-02-28T05:47:58;100304.47;;;10.16;89.98
5755;BME280;2902;42.130;24.732;2023-02-28T05:50:27;100302.53;;;10.02;90.48
5755;BME280;2902;42.130;24.732;2023-02-28T05:52:53;100305.28;;;9.78;92.26
5755;BME280;2902;42.130;24.732;2023-02-28T05:55:20;100299.78;;;9.87;92.10
5755;BME280;2902;42.130;24.732;2023-02-28T05:57:47;100307.94;;;9.78;92.07
5755;BME280;2902;42.130;24.732;2023-02-28T06:00:14;100294.88;;;9.68;92.43
5755;BME280;2902;42.130;24.732;2023-02-28T06:02:43;100304.41;;;9.85;92.33
5755;BME280;2902;42.130;24.732;2023-02-28T06:05:13;100320.44;;;10.00;91.33
5755;BME280;2902;42.130;24.732;2023-02-28T06:07:42;100319.16;;;9.88;91.80
5755;BME280;2902;42.130;24.732;2023-02-28T06:10:10;100315.41;;;9.82;91.65
5755;BME280;2902;42.130;24.732;2023-02-28T06:12:37;100319.81;;;10.06;91.72
5755;BME280;2902;42.130;24.732;2023-02-28T06:15:05;100325.25;;;10.04;90.80
5755;BME280;2902;42.130;24.732;2023-02-28T06:17:31;100325.56;;;10.17;90.21
5755;BME280;2902;42.130;24.732;2023-02-28T06:19:58;100340.69;;;10.09;90.25
5755;BME280;2902;42.130;24.732;2023-02-28T06:22:25;100325.72;;;10.16;89.73
5755;BME280;2902;42.130;24.732;2023-02-28T06:24:53;100328.63;;;10.29;89.34
5755;BME280;2902;42.130;24.732;2023-02-28T06:27:20;100327.28;;;10.33;88.78
5755;BME280;2902;42.130;24.732;2023-02-28T06:29:47;100331.41;;;10.43;88.56
5755;BME280;2902;42.130;24.732;2023-02-28T06:32:14;100321.31;;;10.39;89.26
5755;BME280;2902;42.130;24.732;2023-02-28T06:34:41;100329.81;;;10.57;88.84
5755;BME280;2902;42.130;24.732;2023-02-28T06:37:07;100346.00;;;10.70;88.01
5755;BME280;2902;42.130;24.732;2023-02-28T06:39:34;100331.72;;;10.71;87.33
5755;BME280;2902;42.130;24.732;2023-02-28T06:42:03;100330.78;;;10.64;87.62
5755;BME280;2902;42.130;24.732;2023-02-28T06:44:30;100331.53;;;10.50;87.82
5755;BME280;2902;42.130;24.732;2023-02-28T06:47:00;100341.72;;;10.38;87.80
5755;BME280;2902;42.130;24.732;2023-02-28T06:49:28;100337.81;;;10.49;88.45
5755;BME280;2902;42.130;24.732;2023-02-28T06:51:55;100341.84;;;10.45;88.21
5755;BME280;2902;42.130;24.732;2023-02-28T06:54:22;100339.72;;;10.40;88.31
5755;BME280;2902;42.130;24.732;2023-02-28T06:56:49;100351.81;;;10.43;88.30
5755;BME280;2902;42.130;24.732;2023-02-28T06:59:17;100348.94;;;10.52;88.14
5755;BME280;2902;42.130;24.732;2023-02-28T07:01:44;100368.06;;;10.48;88.05
5755;BME280;2902;42.130;24.732;2023-02-28T07:04:10;100339.75;;;10.32;88.94
5755;BME280;2902;42.130;24.732;2023-02-28T07:06:38;100347.84;;;10.39;88.40
5755;BME280;2902;42.130;24.732;2023-02-28T07:09:05;100349.28;;;10.49;88.63
5755;BME280;2902;42.130;24.732;2023-02-28T07:11:32;100358.66;;;10.68;87.56
5755;BME280;2902;42.130;24.732;2023-02-28T07:13:58;100346.16;;;10.76;87.03
5755;BME280;2902;42.130;24.732;2023-02-28T07:16:26;100345.78;;;10.79;87.08
5755;BME280;2902;42.130;24.732;2023-02-28T07:18:53;100344.59;;;10.82;86.98
5755;BME280;2902;42.130;24.732;2023-02-28T07:21:20;100354.16;;;10.68;87.05
5755;BME280;2902;42.130;24.732;2023-02-28T07:23:47;100353.91;;;10.78;87.15
5755;BME280;2902;42.130;24.732;2023-02-28T07:26:15;100356.81;;;10.68;87.25
5755;BME280;2902;42.130;24.732;2023-02-28T07:28:42;100365.78;;;10.67;87.62
5755;BME280;2902;42.130;24.732;2023-02-28T07:31:10;100369.16;;;10.61;88.38
5755;BME280;2902;42.130;24.732;2023-02-28T07:33:40;100372.31;;;10.57;87.83
5755;BME280;2902;42.130;24.732;2023-02-28T07:36:09;100369.09;;;10.39;88.61
5755;BME280;2902;42.130;24.732;2023-02-28T07:38:39;100375.34;;;10.54;88.55
5755;BME280;2902;42.130;24.732;2023-02-28T07:41:06;100383.78;;;10.57;88.07
5755;BME280;2902;42.130;24.732;2023-02-28T07:43:33;100374.94;;;10.65;87.40
5755;BME280;2902;42.130;24.732;2023-02-28T07:46:02;100371.50;;;10.56;88.22
5755;BME280;2902;42.130;24.732;2023-02-28T07:48:29;100361.94;;;10.70;87.75
5755;BME280;2902;42.130;24.732;2023-02-28T07:50:58;100370.91;;;10.69;87.08
5755;BME280;2902;42.130;24.732;2023-02-28T07:53:26;100368.56;;;10.74;87.16
5755;BME280;2902;42.130;24.732;2023-02-28T07:55:55;100373.88;;;10.74;86.81
5755;BME280;2902;42.130;24.732;2023-02-28T07:58:22;100373.06;;;10.73;86.53
5755;BME280;2902;42.130;24.732;2023-02-28T08:00:49;100370.53;;;10.80;86.91
5755;BME280;2902;42.130;24.732;2023-02-28T08:03:16;100392.44;;;10.82;86.57
5755;BME280;2902;42.130;24.732;2023-02-28T08:05:43;100379.56;;;10.40;87.50
5755;BME280;2902;42.130;24.732;2023-02-28T08:08:11;100383.47;;;10.52;87.60
5755;BME280;2902;42.130;24.732;2023-02-28T08:10:38;100374.22;;;10.48;87.81
5755;BME280;2902;42.130;24.732;2023-02-28T08:13:05;100394.69;;;10.32;89.04
5755;BME280;2902;42.130;24.732;2023-02-28T08:15:32;100382.41;;;10.31;88.90
5755;BME280;2902;42.130;24.732;2023-02-28T08:17:58;100381.06;;;10.35;89.14
5755;BME280;2902;42.130;24.732;2023-02-28T08:20:26;100375.97;;;10.56;88.40
5755;BME280;2902;42.130;24.732;2023-02-28T08:22:53;100384.69;;;10.42;88.81
5755;BME280;2902;42.130;24.732;2023-02-28T08:25:21;100388.66;;;10.46;88.84
5755;BME280;2902;42.130;24.732;2023-02-28T08:27:50;100383.97;;;10.09;89.39
5755;BME280;2902;42.130;24.732;2023-02-28T08:30:17;100379.25;;;10.35;89.53
5755;BME280;2902;42.130;24.732;2023-02-28T08:32:44;100378.97;;;10.53;89.40
5755;BME280;2902;42.130;24.732;2023-02-28T08:35:10;100371.50;;;10.56;88.73
5755;BME280;2902;42.130;24.732;2023-02-28T08:37:37;100370.91;;;10.69;88.46
5755;BME280;2902;42.130;24.732;2023-02-28T08:40:05;100380.75;;;10.91;86.77
5755;BME280;2902;42.130;24.732;2023-02-28T08:42:33;100379.34;;;11.03;86.96
5755;BME280;2902;42.130;24.732;2023-02-28T08:45:00;100382.06;;;11.18;85.67
5755;BME280;2902;42.130;24.732;2023-02-28T08:47:27;100389.50;;;11.22;85.19
5755;BME280;2902;42.130;24.732;2023-02-28T08:49:53;100386.53;;;11.40;84.76
5755;BME280;2902;42.130;24.732;2023-02-28T08:52:20;100392.81;;;11.24;84.91
5755;BME280;2902;42.130;24.732;2023-02-28T08:54:47;100388.47;;;11.46;85.07
5755;BME280;2902;42.130;24.732;2023-02-28T08:57:14;100395.03;;;11.35;84.55
5755;BME280;2902;42.130;24.732;2023-02-28T08:59:42;100399.66;;;11.41;84.20
5755;BME280;2902;42.130;24.732;2023-02-28T09:02:10;100386.06;;;11.36;83.85
5755;BME280;2902;42.130;24.732;2023-02-28T09:04:38;100386.03;;;11.22;85.47
5755;BME280;2902;42.130;24.732;2023-02-28T09:07:05;100397.63;;;11.43;85.01
5755;BME280;2902;42.130;24.732;2023-02-28T09:09:32;100408.13;;;11.59;83.50
5755;BME280;2902;42.130;24.732;2023-02-28T09:11:59;100392.63;;;11.48;83.56
5755;BME280;2902;42.130;24.732;2023-02-28T09:14:25;100396.56;;;11.52;83.46
5755;BME280;2902;42.130;24.732;2023-02-28T09:16:53;100392.50;;;11.56;82.95
5755;BME280;2902;42.130;24.732;2023-02-28T09:19:21;100390.47;;;11.44;83.72
5755;BME280;2902;42.130;24.732;2023-02-28T09:21:47;100393.53;;;11.55;82.96
5755;BME280;2902;42.130;24.732;2023-02-28T09:24:14;100388.38;;;11.54;83.60
5755;BME280;2902;42.130;24.732;2023-02-28T09:26:41;100392.91;;;11.53;83.10
5755;BME280;2902;42.130;24.732;2023-02-28T09:29:07;100383.50;;;11.65;82.62
5755;BME280;2902;42.130;24.732;2023-02-28T09:31:34;100367.94;;;11.54;82.46
5755;BME280;2902;42.130;24.732;2023-02-28T09:34:04;100373.84;;;11.64;82.48
5755;BME280;2902;42.130;24.732;2023-02-28T09:36:31;100375.72;;;11.78;81.96
5755;BME280;2902;42.130;24.732;2023-02-28T09:38:58;100369.47;;;11.71;82.39
5755;BME280;2902;42.130;24.732;2023-02-28T09:41:26;100382.59;;;11.73;81.83
5755;BME280;2902;42.130;24.732;2023-02-28T09:43:58;100371.44;;;11.55;82.94
5755;BME280;2902;42.130;24.732;2023-02-28T09:46:31;100380.53;;;11.60;82.58
5755;BME280;2902;42.130;24.732;2023-02-28T09:49:05;100379.03;;;11.58;82.58
5755;BME280;2902;42.130;24.732;2023-02-28T09:51:47;100380.09;;;11.71;82.36
5755;BME280;2902;42.130;24.732;2023-02-28T09:54:18;100381.06;;;11.56;82.32
5755;BME280;2902;42.130;24.732;2023-02-28T09:56:46;100378.94;;;11.51;82.84
5755;BME280;2902;42.130;24.732;2023-02-28T09:59:25;100369.22;;;11.58;83.02
5755;BME280;2902;42.130;24.732;2023-02-28T10:01:59;100354.22;;;11.65;82.69
5755;BME280;2902;42.130;24.732;2023-02-28T10:04:43;100343.59;;;11.65;82.42
5755;BME280;2902;42.130;24.732;2023-02-28T10:07:22;100343.69;;;11.72;82.08
5755;BME280;2902;42.130;24.732;2023-02-28T10:09:57;100347.50;;;11.55;82.87
5755;BME280;2902;42.130;24.732;2023-02-28T10:12:28;100340.09;;;11.28;83.92
5755;BME280;2902;42.130;24.732;2023-02-28T10:14:57;100347.16;;;11.35;84.15
5755;BME280;2902;42.130;24.732;2023-02-28T10:17:35;100350.56;;;11.44;83.64
5755;BME280;2902;42.130;24.732;2023-02-28T10:20:10;100343.53;;;11.51;83.09
5755;BME280;2902;42.130;24.732;2023-02-28T10:22:52;100329.56;;;11.49;83.98
5755;BME280;2902;42.130;24.732;2023-02-28T10:25:22;100337.66;;;11.55;83.54
5755;BME280;2902;42.130;24.732;2023-02-28T10:27:50;100333.63;;;11.59;83.18
5755;BME280;2902;42.130;24.732;2023-02-28T10:30:21;100337.56;;;11.49;83.02
5755;BME280;2902;42.130;24.732;2023-02-28T10:32:50;100330.81;;;11.61;83.43
5755;BME280;2902;42.130;24.732;2023-02-28T10:35:21;100334.31;;;11.61;83.21
5755;BME280;2902;42.130;24.732;2023-02-28T10:37:50;100322.16;;;11.59;82.77
5755;BME280;2902;42.130;24.732;2023-02-28T10:40:30;100333.56;;;11.67;83.33
5755;BME280;2902;42.130;24.732;2023-02-28T10:42:58;100329.63;;;11.26;84.01
5755;BME280;2902;42.130;24.732;2023-02-28T10:45:26;100330.00;;;11.38;83.85
5755;BME280;2902;42.130;24.732;2023-02-28T10:47:57;100333.44;;;11.46;85.34
5755;BME280;2902;42.130;24.732;2023-02-28T10:50:33;100329.53;;;11.34;84.13
5755;BME280;2902;42.130;24.732;2023-02-28T10:53:15;100324.72;;;11.15;84.88
5755;BME280;2902;42.130;24.732;2023-02-28T10:55:43;100326.00;;;11.19;84.77
5755;BME280;2902;42.130;24.732;2023-02-28T10:58:22;100318.69;;;11.21;84.73
5755;BME280;2902;42.130;24.732;2023-02-28T11:00:50;100326.00;;;11.19;84.73
5755;BME280;2902;42.130;24.732;2023-02-28T11:03:28;100308.13;;;11.13;84.92
5755;BME280;2902;42.130;24.732;2023-02-28T11:05:57;100312.28;;;10.93;86.22
5755;BME280;2902;42.130;24.732;2023-02-28T11:08:24;100308.56;;;11.02;86.10
5755;BME280;2902;42.130;24.732;2023-02-28T11:10:54;100310.03;;;10.82;86.38
5755;BME280;2902;42.130;24.732;2023-02-28T11:13:33;100305.56;;;10.82;86.78
5755;BME280;2902;42.130;24.732;2023-02-28T11:16:03;100303.06;;;10.81;86.79
5755;BME280;2902;42.130;24.732;2023-02-28T11:18:36;100297.75;;;10.81;87.13
5755;BME280;2902;42.130;24.732;2023-02-28T11:21:07;100306.41;;;10.83;87.02
5755;BME280;2902;42.130;24.732;2023-02-28T11:23:36;100303.25;;;10.79;86.58
5755;BME280;2902;42.130;24.732;2023-02-28T11:26:06;100303.81;;;10.75;87.14
5755;BME280;2902;42.130;24.732;2023-02-28T11:28:37;100302.22;;;10.66;88.13
5755;BME280;2902;42.130;24.732;2023-02-28T11:31:15;100300.38;;;10.66;88.13
5755;BME280;2902;42.130;24.732;2023-02-28T11:33:45;100286.66;;;10.55;88.03
5755;BME280;2902;42.130;24.732;2023-02-28T11:36:18;100298.09;;;10.78;87.89
5755;BME280;2902;42.130;24.732;2023-02-28T11:38:46;100303.91;;;10.59;88.96
5755;BME280;2902;42.130;24.732;2023-02-28T11:41:34;100298.94;;;10.56;89.43
5755;BME280;2902;42.130;24.732;2023-02-28T11:46:52;100292.28;;;10.60;90.18
5755;BME280;2902;42.130;24.732;2023-02-28T11:49:30;100290.84;;;10.49;90.81
5755;BME280;2902;42.130;24.732;2023-02-28T11:52:02;100287.00;;;10.52;91.58
5755;BME280;2902;42.130;24.732;2023-02-28T11:54:48;100286.00;;;10.53;91.41
5755;BME280;2902;42.130;24.732;2023-02-28T11:57:38;100279.88;;;10.52;91.73
5755;BME280;2902;42.130;24.732;2023-02-28T12:03:15;100281.00;;;9.97;95.27
5755;BME280;2902;42.130;24.732;2023-02-28T12:05:45;100278.94;;;10.15;96.71
5755;BME280;2902;42.130;24.732;2023-02-28T12:08:26;100275.59;;;10.21;97.11
5755;BME280;2902;42.130;24.732;2023-02-28T12:11:06;100271.16;;;10.13;97.62
5755;BME280;2902;42.130;24.732;2023-02-28T12:13:46;100270.84;;;10.08;98.79
5755;BME280;2902;42.130;24.732;2023-02-28T12:16:45;100266.00;;;10.65;100.00
5755;BME280;2902;42.130;24.732;2023-02-28T12:19:20;100269.53;;;11.17;98.77
5755;BME280;2902;42.130;24.732;2023-02-28T12:22:01;100280.44;;;11.07;95.37
5755;BME280;2902;42.130;24.732;2023-02-28T12:24:44;100280.44;;;11.07;94.23
5755;BME280;2902;42.130;24.732;2023-02-28T12:27:19;100290.47;;;10.83;93.36
5755;BME280;2902;42.130;24.732;2023-02-28T12:29:51;100285.25;;;10.89;94.26
5755;BME280;2902;42.130;24.732;2023-02-28T12:32:25;100273.84;;;10.81;94.55
5755;BME280;2902;42.130;24.732;2023-02-28T12:34:57;100273.19;;;10.34;95.44
5755;BME280;2902;42.130;24.732;2023-02-28T12:37:30;100262.03;;;10.38;96.71
5755;BME280;2902;42.130;24.732;2023-02-28T12:40:03;100264.16;;;10.20;98.13
5755;BME280;2902;42.130;24.732;2023-02-28T12:42:34;100267.59;;;9.90;100.00
5755;BME280;2902;42.130;24.732;2023-02-28T12:45:10;100271.03;;;9.99;100.00
5755;BME280;2902;42.130;24.732;2023-02-28T12:47:38;100259.75;;;10.05;100.00
5755;BME280;2902;42.130;24.732;2023-02-28T12:50:11;100250.47;;;10.01;100.00
5755;BME280;2902;42.130;24.732;2023-02-28T12:52:43;100259.00;;;9.80;100.00
5755;BME280;2902;42.130;24.732;2023-02-28T12:55:16;100253.19;;;9.85;100.00
5755;BME280;2902;42.130;24.732;2023-02-28T12:57:50;100249.88;;;9.83;100.00
5755;BME280;2902;42.130;24.732;2023-02-28T13:00:23;100261.25;;;9.99;100.00
5755;BME280;2902;42.130;24.732;2023-02-28T13:03:06;100251.44;;;10.00;100.00
5755;BME280;2902;42.130;24.732;2023-02-28T13:05:54;100259.75;;;10.05;100.00
5755;BME280;2902;42.130;24.732;2023-02-28T13:08:59;100243.06;;;9.88;100.00
5755;BME280;2902;42.130;24.732;2023-02-28T13:11:30;100250.81;;;9.98;100.00
5755;BME280;2902;42.130;24.732;2023-02-28T13:14:00;100253.19;;;9.85;100.00
5755;BME280;2902;42.130;24.732;2023-02-28T13:16:27;100245.66;;;9.96;100.00
5755;BME280;2902;42.130;24.732;2023-02-28T13:19:08;100242.22;;;9.88;100.00
5755;BME280;2902;42.130;24.732;2023-02-28T13:21:43;100248.78;;;10.00;100.00
5755;BME280;2902;42.130;24.732;2023-02-28T13:24:11;100246.97;;;10.00;100.00
5755;BME280;2902;42.130;24.732;2023-02-28T13:27:38;100252.56;;;10.13;100.00
5755;BME280;2902;42.130;24.732;2023-02-28T13:33:28;100249.47;;;10.02;100.00
5755;BME280;2902;42.130;24.732;2023-02-28T13:36:25;100248.19;;;9.90;100.00
5755;BME280;2902;42.130;24.732;2023-02-28T13:38:55;100242.03;;;9.89;100.00
5755;BME280;2902;42.130;24.732;2023-02-28T13:41:47;100247.81;;;10.01;100.00